Time;durP1;ratioP1;P1;durP2;ratioP2;P2;SDS_P1;SDS_P2;PMS_P1;PMS_P2;Temp;Humidity;BMP_temperature;BMP_pressure;BME280_temperature;BME280_humidity;BME280_pressure;Samples;Min_cycle;Max_cycle;Signal;HPM_P1;HPM_P2
2022/04/15 00:03:01;;;;;;;0.50;0.50;;;;;;;17.37;55.70;97127.72;10328823;28;20485;-24
2022/04/15 00:08:09;;;;;;;0.70;0.70;;;;;;;17.38;55.48;97121.84;10329006;28;20129;-22
2022/04/15 00:13:12;;;;;;;0.80;0.68;;;;;;;17.36;55.56;97133.63;10328667;28;20427;-21
2022/04/15 00:18:12;;;;;;;1.17;0.80;;;;;;;17.35;55.72;97131.91;10333747;28;20516;-22
2022/04/15 00:23:13;;;;;;;0.50;0.50;;;;;;;17.36;55.41;97143.75;10369185;28;20038;-21
2022/04/15 00:28:13;;;;;;;0.70;0.60;;;;;;;17.27;55.57;97113.25;10351779;28;20418;-22
2022/04/15 00:33:14;;;;;;;1.20;0.70;;;;;;;17.35;55.64;97132.75;10334538;28;20042;-22
2022/04/15 00:38:14;;;;;;;1.08;0.75;;;;;;;17.63;56.41;97137.31;10368645;28;20038;-22
2022/04/15 00:43:15;;;;;;;0.90;0.80;;;;;;;17.69;55.73;97118.78;10344045;28;20119;-22
2022/04/15 00:48:19;;;;;;;0.90;0.80;;;;;;;17.57;55.43;97119.50;10327568;28;20061;-22
2022/04/15 00:53:22;;;;;;;0.68;0.68;;;;;;;17.51;55.18;97138.84;10327701;28;20126;-22
2022/04/15 00:58:25;;;;;;;0.95;0.60;;;;;;;17.41;55.39;97134.53;10327366;28;20042;-22
2022/04/15 01:03:25;;;;;;;0.88;0.77;;;;;;;17.40;55.65;97140.44;10334870;28;20037;-22
2022/04/15 01:08:30;;;;;;;0.70;0.70;;;;;;;17.40;55.64;97150.56;10368271;28;20492;-22
2022/04/15 01:13:38;;;;;;;0.70;0.70;;;;;;;17.31;55.75;97125.13;10353046;28;20031;-22
2022/04/15 01:18:39;;;;;;;0.80;0.68;;;;;;;17.34;55.69;97133.56;10326997;28;20413;-22
2022/04/15 01:23:40;;;;;;;0.70;0.60;;;;;;;17.36;55.60;97144.63;10326500;28;20034;-23
2022/04/15 01:28:41;;;;;;;0.70;0.70;;;;;;;17.38;55.64;97147.13;10326940;28;20291;-22
2022/04/15 01:33:41;;;;;;;0.57;0.57;;;;;;;17.34;55.55;97147.91;10335510;28;20037;-22
2022/04/15 01:38:42;;;;;;;2.30;0.90;;;;;;;17.41;56.91;97157.31;10334790;28;20046;-22
2022/04/15 01:43:42;;;;;;;0.60;0.60;;;;;;;17.65;56.24;97148.28;10334368;28;20038;-23
2022/04/15 01:48:42;;;;;;;1.23;0.70;;;;;;;17.77;56.15;97150.09;10334339;28;20030;-22
2022/04/15 01:53:42;;;;;;;1.00;0.70;;;;;;;17.62;55.31;97142.34;10334036;28;20397;-22
2022/04/15 01:58:43;;;;;;;0.70;0.63;;;;;;;17.51;55.16;97148.97;10334145;28;20026;-22
2022/04/15 02:03:43;;;;;;;0.60;0.60;;;;;;;17.43;55.21;97137.94;10332897;28;20042;-22
2022/04/15 02:08:44;;;;;;;0.60;0.60;;;;;;;17.43;55.33;97145.53;10333868;28;20041;-22
2022/04/15 02:13:44;;;;;;;0.60;0.60;;;;;;;17.39;55.58;97152.22;10332864;28;20042;-23
2022/04/15 02:18:44;;;;;;;0.60;0.60;;;;;;;17.29;55.63;97137.75;10343168;28;20129;-22
2022/04/15 02:23:45;;;;;;;0.70;0.60;;;;;;;17.30;55.51;97141.97;10373347;28;20037;-22
2022/04/15 02:28:45;;;;;;;0.63;0.63;;;;;;;17.37;55.80;97160.63;10343422;28;20038;-22
2022/04/15 02:33:45;;;;;;;0.70;0.70;;;;;;;17.36;55.72;97158.94;10332213;28;20042;-22
2022/04/15 02:38:46;;;;;;;0.40;0.40;;;;;;;17.36;55.68;97148.81;10332625;28;20378;-22
2022/04/15 02:43:46;;;;;;;0.83;0.83;;;;;;;17.42;57.65;97153.94;10331049;28;20113;-23
2022/04/15 02:48:47;;;;;;;0.73;0.50;;;;;;;17.67;56.14;97148.31;10331877;28;20496;-22
2022/04/15 02:53:47;;;;;;;0.50;0.50;;;;;;;17.78;55.54;97149.25;10331419;28;20126;-22
2022/04/15 02:58:47;;;;;;;0.73;0.73;;;;;;;17.63;55.09;97146.56;10332601;28;20497;-22
2022/04/15 03:03:48;;;;;;;0.70;0.70;;;;;;;17.50;55.27;97144.75;10341847;28;20088;-22
2022/04/15 03:08:48;;;;;;;1.05;0.63;;;;;;;17.44;55.38;97142.16;10371944;28;20084;-22
2022/04/15 03:13:48;;;;;;;0.57;0.50;;;;;;;17.42;55.42;97153.94;10357758;28;20477;-22
2022/04/15 03:18:49;;;;;;;1.08;0.70;;;;;;;17.40;55.58;97145.50;10330690;28;20293;-22
2022/04/15 03:23:49;;;;;;;0.80;0.80;;;;;;;17.40;55.52;97150.56;10331301;28;20030;-22
2022/04/15 03:28:50;;;;;;;0.50;0.50;;;;;;;17.38;55.48;97159.78;10347848;28;20041;-22
2022/04/15 03:33:50;;;;;;;0.50;0.50;;;;;;;17.39;55.77;97156.44;10359164;28;20554;-21
2022/04/15 03:38:50;;;;;;;0.75;0.65;;;;;;;17.39;55.41;97158.97;10330320;28;20292;-22
2022/04/15 03:43:51;;;;;;;0.70;0.70;;;;;;;17.41;55.45;97159.84;10330039;28;20038;-23
2022/04/15 03:48:51;;;;;;;0.87;0.83;;;;;;;17.43;55.37;97160.72;10329677;28;20117;-22
2022/04/15 03:53:51;;;;;;;0.80;0.80;;;;;;;17.69;59.13;97159.28;10328150;28;20112;-22
2022/04/15 03:58:52;;;;;;;1.20;0.90;;;;;;;17.75;56.12;97159.38;10329517;28;20488;-22
2022/04/15 04:03:52;;;;;;;0.70;0.70;;;;;;;17.62;55.27;97162.59;10329434;28;20348;-22
2022/04/15 04:08:52;;;;;;;0.50;0.50;;;;;;;17.56;55.29;97165.09;10329962;28;20452;-23
2022/04/15 04:13:53;;;;;;;0.47;0.47;;;;;;;17.50;55.37;97173.44;10328616;28;20038;-22
2022/04/15 04:18:53;;;;;;;0.57;0.50;;;;;;;17.51;55.17;97165.00;10361365;28;20397;-22
2022/04/15 04:23:53;;;;;;;0.67;0.67;;;;;;;17.49;55.11;97175.97;10369319;28;20061;-22
2022/04/15 04:28:54;;;;;;;1.02;0.60;;;;;;;17.48;55.12;97182.69;10342714;28;20420;-22
2022/04/15 04:33:54;;;;;;;0.83;0.63;;;;;;;17.47;55.15;97175.09;10328551;28;20444;-23
2022/04/15 04:38:55;;;;;;;1.20;0.70;;;;;;;17.48;55.30;97182.69;10328307;28;20289;-22
2022/04/15 04:43:55;;;;;;;0.90;0.63;;;;;;;17.50;55.26;97181.03;10327482;28;20038;-23
2022/04/15 04:48:55;;;;;;;0.63;0.60;;;;;;;17.50;55.14;97187.78;10339318;28;20092;-22
2022/04/15 04:53:56;;;;;;;0.80;0.80;;;;;;;17.59;58.47;97186.19;10368573;28;20041;-22
2022/04/15 04:58:56;;;;;;;0.82;0.80;;;;;;;17.79;59.48;97186.41;10350706;28;20288;-22
2022/04/15 05:03:57;;;;;;;0.47;0.47;;;;;;;17.81;56.39;97187.25;10366347;28;20429;-22
2022/04/15 05:08:57;;;;;;;0.68;0.47;;;;;;;17.66;55.35;97194.72;10332563;28;20523;-23
2022/04/15 05:13:57;;;;;;;1.17;0.67;;;;;;;17.59;55.15;97198.84;10357258;28;20034;-22
2022/04/15 05:18:58;;;;;;;0.60;0.60;;;;;;;17.45;55.23;97186.88;10335206;28;20570;-22
2022/04/15 05:23:58;;;;;;;0.82;0.70;;;;;;;17.53;55.09;97208.06;10326858;28;20493;-22
2022/04/15 05:28:59;;;;;;;0.40;0.40;;;;;;;17.50;55.06;97208.03;10326906;28;20038;-22
2022/04/15 05:34:00;;;;;;;0.63;0.60;;;;;;;17.48;55.10;97213.06;10325842;28;20401;-22
2022/04/15 05:39:01;;;;;;;0.43;0.40;;;;;;;17.50;54.90;97210.56;10326536;28;20031;-22
2022/04/15 05:44:03;;;;;;;1.17;1.13;;;;;;;17.50;55.18;97213.94;10326006;28;20038;-23
2022/04/15 05:49:05;;;;;;;0.63;0.63;;;;;;;17.49;55.30;97212.25;10337762;28;20054;-22
2022/04/15 05:54:05;;;;;;;0.50;0.50;;;;;;;17.47;55.08;97223.19;10367061;28;20080;-22
2022/04/15 05:59:06;;;;;;;1.25;1.00;;;;;;;17.54;57.89;97214.81;10334011;28;20101;-23
2022/04/15 06:04:06;;;;;;;0.63;0.63;;;;;;;17.77;58.63;97223.53;10325444;28;20058;-22
2022/04/15 06:09:07;;;;;;;0.77;0.77;;;;;;;17.83;55.73;97226.97;10323789;28;20030;-22
2022/04/15 06:14:08;;;;;;;0.60;0.50;;;;;;;17.62;55.26;97218.28;10324406;28;20129;-23
2022/04/15 06:19:08;;;;;;;0.50;0.47;;;;;;;17.57;55.13;97219.94;10330786;28;20512;-22
2022/04/15 06:24:09;;;;;;;0.30;0.30;;;;;;;17.54;55.41;97224.94;10332459;28;20030;-22
2022/04/15 06:29:09;;;;;;;0.60;0.52;;;;;;;17.32;55.29;97197.69;10331662;28;20034;-22
2022/04/15 06:34:10;;;;;;;1.07;0.60;;;;;;;17.36;55.40;97212.09;10332188;28;20034;-22
2022/04/15 06:39:10;;;;;;;0.50;0.50;;;;;;;17.42;55.39;97220.59;10332549;28;20376;-22
2022/04/15 06:44:10;;;;;;;0.57;0.57;;;;;;;17.48;55.34;97232.50;10330731;28;20459;-22
2022/04/15 06:49:10;;;;;;;0.57;0.57;;;;;;;17.47;55.66;97228.25;10356256;28;20045;-21
2022/04/15 06:54:11;;;;;;;0.57;0.57;;;;;;;17.46;55.35;97236.66;10331617;28;20044;-22
2022/04/15 06:59:11;;;;;;;0.50;0.50;;;;;;;17.39;55.48;97223.09;10335724;28;20121;-22
2022/04/15 07:04:12;;;;;;;1.03;0.77;;;;;;;17.55;57.26;97242.69;10370160;28;20303;-22
2022/04/15 07:09:12;;;;;;;1.10;0.60;;;;;;;17.75;56.78;97242.94;10371284;28;20112;-22
2022/04/15 07:14:13;;;;;;;0.65;0.52;;;;;;;17.82;56.11;97240.47;10369900;28;20500;-23
2022/04/15 07:19:13;;;;;;;1.00;0.70;;;;;;;17.64;54.99;97247.00;10356494;28;20045;-22
2022/04/15 07:24:14;;;;;;;0.50;0.50;;;;;;;17.54;55.25;97246.06;10336809;28;20030;-22
2022/04/15 07:29:14;;;;;;;0.50;0.50;;;;;;;17.45;55.28;97240.91;10369216;28;20030;-21
2022/04/15 07:34:14;;;;;;;0.37;0.37;;;;;;;17.41;55.31;97233.25;10355204;28;20305;-22
2022/04/15 07:39:15;;;;;;;1.13;0.50;;;;;;;17.47;55.37;97248.50;10348908;28;20277;-22
2022/04/15 07:44:16;;;;;;;0.57;0.57;;;;;;;17.50;55.40;97261.22;10350162;28;20034;-22
2022/04/15 07:49:16;;;;;;;0.75;0.70;;;;;;;17.50;55.90;97253.63;10342376;28;20500;-22
2022/04/15 07:54:17;;;;;;;2.35;0.65;;;;;;;17.48;55.61;97255.28;10329456;28;20042;-23
2022/04/15 07:59:18;;;;;;;3.40;0.60;;;;;;;17.48;55.66;97260.34;10327959;28;20428;-22
2022/04/15 08:04:18;;;;;;;2.78;0.60;;;;;;;17.39;55.51;97250.06;10328579;28;20293;-22
2022/04/15 08:09:20;;;;;;;4.53;1.70;;;;;;;17.46;58.52;97239.19;10328975;28;20034;-22
2022/04/15 08:14:20;;;;;;;2.95;1.00;;;;;;;17.76;56.98;97257.28;10328832;28;20484;-22
2022/04/15 08:19:21;;;;;;;2.67;0.90;;;;;;;17.85;55.87;97254.88;10328603;28;20035;-22
2022/04/15 08:24:21;;;;;;;2.35;0.43;;;;;;;17.69;55.46;97260.59;10328428;28;20045;-21
2022/04/15 08:29:22;;;;;;;1.08;0.70;;;;;;;17.56;55.51;97253.69;10328532;28;20042;-23
2022/04/15 08:34:22;;;;;;;0.75;0.50;;;;;;;17.51;55.35;97261.19;10328071;28;20061;-22
2022/04/15 08:39:22;;;;;;;1.03;0.47;;;;;;;17.49;55.42;97267.09;10327595;28;20121;-22
2022/04/15 08:44:24;;;;;;;0.93;0.93;;;;;;;17.46;55.64;97270.44;10328586;28;20038;-21
2022/04/15 08:49:25;;;;;;;0.60;0.60;;;;;;;17.45;55.72;97278.00;10327786;28;20042;-22
2022/04/15 08:54:26;;;;;;;0.50;0.50;;;;;;;17.45;55.32;97283.94;10327402;28;20041;-22
2022/04/15 08:59:26;;;;;;;1.57;0.70;;;;;;;17.43;55.62;97283.06;10348562;28;20393;-22
2022/04/15 09:04:26;;;;;;;2.43;0.80;;;;;;;17.43;55.66;97287.28;10350918;28;20396;-22
2022/04/15 09:09:31;;;;;;;0.73;0.73;;;;;;;17.42;55.48;97280.50;10327003;28;20293;-22
2022/04/15 09:14:31;;;;;;;1.77;1.17;;;;;;;17.47;57.58;97282.25;10362877;28;20531;-22
2022/04/15 09:19:32;;;;;;;2.67;0.90;;;;;;;17.74;56.68;97282.59;10350001;28;20137;-23
2022/04/15 09:24:34;;;;;;;0.80;0.70;;;;;;;17.86;56.26;97281.88;10326727;28;20042;-22
2022/04/15 09:29:36;;;;;;;1.80;0.88;;;;;;;17.71;55.41;97284.22;10351756;28;20282;-23
2022/04/15 09:34:58;;;;;;;0.98;0.68;;;;;;;17.48;55.21;97275.53;10349148;28;20030;-25
2022/04/15 09:40:15;;;;;;;1.00;0.52;;;;;;;17.50;55.36;97294.94;10327598;28;20066;-22
2022/04/15 09:45:20;;;;;;;0.60;0.50;;;;;;;17.51;55.19;97295.81;10346532;28;20041;-22
2022/04/15 09:50:29;;;;;;;0.90;0.70;;;;;;;17.53;55.42;97294.13;10341359;28;20110;-22
2022/04/15 09:55:30;;;;;;;0.63;0.63;;;;;;;17.54;55.47;97290.78;10333573;28;20289;-22
2022/04/15 10:00:31;;;;;;;0.50;0.50;;;;;;;17.52;55.22;97288.25;10340475;28;20497;-22
2022/04/15 10:05:32;;;;;;;0.40;0.40;;;;;;;17.53;55.22;97289.94;10343694;28;20296;-22
2022/04/15 10:10:33;;;;;;;0.95;0.68;;;;;;;17.54;55.10;97285.72;10374761;28;20045;-22
2022/04/15 10:15:36;;;;;;;1.10;0.45;;;;;;;17.52;55.53;97282.31;10347081;28;20456;-22
2022/04/15 10:20:38;;;;;;;3.13;1.27;;;;;;;17.59;57.76;97279.03;10333281;28;20038;-22
2022/04/15 10:25:46;;;;;;;1.10;0.85;;;;;;;17.78;57.14;97270.81;10331494;28;20030;-22
2022/04/15 10:31:11;;;;;;;1.30;0.60;;;;;;;17.89;56.12;97270.09;10363725;28;20038;-22
2022/04/15 10:36:12;;;;;;;2.88;0.63;;;;;;;17.74;55.36;97266.56;10342285;28;20117;-22
2022/04/15 10:41:16;;;;;;;1.13;0.88;;;;;;;17.61;55.09;97255.44;10332531;28;20081;-24
2022/04/15 10:46:16;;;;;;;2.78;0.88;;;;;;;17.61;55.07;97252.03;10332009;28;20042;-22
2022/04/15 10:51:26;;;;;;;0.93;0.70;;;;;;;17.59;55.25;97261.31;10331421;28;20042;-21
2022/04/15 10:56:26;;;;;;;15.45;1.67;;;;;;;17.58;55.36;97257.09;10337181;28;20039;-21
2022/04/15 11:01:27;;;;;;;3.35;0.60;;;;;;;17.55;55.62;97257.91;10349245;28;20502;-23
2022/04/15 11:06:28;;;;;;;2.80;0.50;;;;;;;17.52;55.33;97251.94;10369233;28;20381;-23
2022/04/15 11:11:34;;;;;;;5.75;1.10;;;;;;;17.54;55.57;97245.22;10364320;28;20042;-22
2022/04/15 11:16:42;;;;;;;3.15;0.82;;;;;;;17.55;55.72;97246.91;10357480;28;20249;-23
2022/04/15 11:21:49;;;;;;;4.55;1.17;;;;;;;17.51;55.49;97242.66;10334167;28;20030;-23
2022/04/15 11:26:56;;;;;;;5.88;1.50;;;;;;;17.63;57.45;97240.25;10334496;28;20032;-23
2022/04/15 11:32:05;;;;;;;5.03;1.30;;;;;;;17.86;57.17;97234.63;10370737;28;20044;-23
2022/04/15 11:37:06;;;;;;;2.40;0.70;;;;;;;17.90;55.83;97230.44;10360735;28;20459;-23
2022/04/15 11:42:12;;;;;;;0.88;0.75;;;;;;;17.72;55.36;97240.34;10358640;28;20041;-24
2022/04/15 11:47:26;;;;;;;1.55;0.60;;;;;;;17.60;55.59;97240.22;10329908;28;20179;-23
2022/04/15 11:52:27;;;;;;;0.80;0.60;;;;;;;17.56;55.39;97229.22;10370151;28;20120;-22
2022/04/15 11:57:29;;;;;;;1.42;0.65;;;;;;;17.54;55.46;97232.53;10364498;28;20496;-23
2022/04/15 12:02:30;;;;;;;0.88;0.52;;;;;;;17.53;55.55;97229.19;10329239;28;20034;-23
2022/04/15 12:07:32;;;;;;;1.98;1.00;;;;;;;17.41;55.60;97207.94;10329263;28;20065;-23
2022/04/15 12:12:32;;;;;;;5.57;1.65;;;;;;;17.52;55.57;97229.16;10366804;28;20039;-24
2022/04/15 12:17:33;;;;;;;2.65;1.40;;;;;;;17.51;55.65;97230.00;10366845;28;20083;-23
2022/04/15 12:22:35;;;;;;;3.08;1.27;;;;;;;17.50;55.43;97224.06;10328935;28;20481;-23
2022/04/15 12:27:36;;;;;;;3.17;0.95;;;;;;;17.50;55.86;97224.06;10334627;28;20424;-23
2022/04/15 12:32:39;;;;;;;2.90;0.70;;;;;;;17.64;57.26;97214.94;10367267;28;20045;-23
2022/04/15 12:37:50;;;;;;;4.25;0.98;;;;;;;17.88;57.99;97212.69;10328473;28;20030;-23
2022/04/15 12:42:53;;;;;;;1.85;1.02;;;;;;;17.90;56.25;97210.19;10347951;28;20034;-24
2022/04/15 12:48:01;;;;;;;0.57;0.57;;;;;;;17.75;55.66;97210.00;10364172;28;20026;-23
2022/04/15 12:53:15;;;;;;;1.23;0.90;;;;;;;17.61;55.70;97206.47;10327226;28;20400;-23
2022/04/15 12:58:29;;;;;;;1.48;0.70;;;;;;;17.56;55.42;97203.88;10327648;28;20507;-23
2022/04/15 13:03:32;;;;;;;1.67;0.90;;;;;;;17.52;55.58;97193.72;10327766;28;20043;-23
2022/04/15 13:08:32;;;;;;;0.80;0.70;;;;;;;17.53;55.38;97198.81;10333985;28;20116;-23
2022/04/15 13:13:34;;;;;;;0.83;0.70;;;;;;;17.53;55.73;97193.75;10354988;28;20046;-23
2022/04/15 13:18:34;;;;;;;2.60;0.90;;;;;;;17.52;55.31;97194.56;10327663;28;20806;-23
2022/04/15 13:23:34;;;;;;;0.80;0.73;;;;;;;17.51;55.41;97190.31;10326926;28;20277;-24
2022/04/15 13:28:35;;;;;;;0.80;0.77;;;;;;;17.53;55.57;97193.75;10333852;28;20093;-22
2022/04/15 13:33:37;;;;;;;1.67;1.25;;;;;;;17.52;55.55;97188.66;10334665;28;20351;-22
2022/04/15 13:38:37;;;;;;;2.28;0.80;;;;;;;17.70;57.85;97181.25;10335301;28;20030;-23
2022/04/15 13:43:38;;;;;;;2.53;0.80;;;;;;;17.79;58.46;97172.06;10334410;28;20404;-23
2022/04/15 13:48:38;;;;;;;1.10;1.00;;;;;;;17.91;56.22;97186.53;10334396;28;20113;-22
2022/04/15 13:58:57;;;;;;;1.92;1.00;;;;;;;17.56;55.33;97177.75;10333296;28;20064;-24
2022/04/15 14:04:01;;;;;;;1.40;0.63;;;;;;;17.59;55.51;97191.25;10345152;28;20048;-23
2022/04/15 14:09:02;;;;;;;1.20;0.47;;;;;;;17.49;55.53;97170.91;10374551;28;20412;-23
2022/04/15 14:14:04;;;;;;;1.10;0.88;;;;;;;17.56;55.60;97182.81;10346375;28;20042;-23
2022/04/15 14:19:06;;;;;;;1.30;0.93;;;;;;;17.55;55.46;97181.09;10333535;28;20440;-24
2022/04/15 14:24:07;;;;;;;1.23;1.00;;;;;;;17.54;55.44;97186.97;10333523;28;20436;-22
2022/04/15 14:29:08;;;;;;;1.50;0.90;;;;;;;17.53;55.64;97186.16;10332803;28;20034;-21
2022/04/15 14:34:10;;;;;;;1.00;0.73;;;;;;;17.53;55.51;97187.81;10331989;28;20031;-21
2022/04/15 14:39:10;;;;;;;0.70;0.70;;;;;;;17.51;55.44;97179.38;10331520;28;20042;-21
2022/04/15 14:44:10;;;;;;;1.03;1.00;;;;;;;17.71;57.58;97177.88;10354673;28;20091;-21
2022/04/15 14:49:11;;;;;;;2.07;0.80;;;;;;;17.91;57.83;97181.47;10358235;28;20117;-22
2022/04/15 14:54:12;;;;;;;0.87;0.63;;;;;;;17.89;56.11;97180.59;10332626;28;20031;-21
2022/04/15 14:59:12;;;;;;;0.85;0.73;;;;;;;17.74;55.92;97177.94;10331383;28;20652;-21
2022/04/15 15:04:14;;;;;;;1.70;0.80;;;;;;;17.63;55.40;97180.34;10331006;28;20034;-20
2022/04/15 15:09:14;;;;;;;0.60;0.50;;;;;;;17.58;55.79;97179.44;10343188;28;20045;-21
2022/04/15 15:14:14;;;;;;;2.90;0.63;;;;;;;17.56;55.46;97178.56;10355804;28;20412;-21
2022/04/15 15:19:15;;;;;;;0.70;0.70;;;;;;;17.54;55.41;97170.13;10330982;28;20452;-21
2022/04/15 15:29:49;;;;;;;0.50;0.50;;;;;;;17.52;55.75;97165.88;10330756;28;20038;-21
2022/04/15 15:34:50;;;;;;;0.52;0.50;;;;;;;17.53;55.76;97162.50;10330306;28;20485;-21
2022/04/15 15:39:50;;;;;;;1.90;0.80;;;;;;;17.50;55.63;97175.13;10330450;28;20062;-20
2022/04/15 15:44:51;;;;;;;0.60;0.60;;;;;;;17.50;55.49;97172.59;10360071;28;20289;-21
2022/04/15 15:49:52;;;;;;;1.98;0.90;;;;;;;17.74;57.13;97166.09;10350359;28;20038;-21
2022/04/15 15:54:52;;;;;;;1.10;0.90;;;;;;;17.92;57.50;97167.97;10329492;28;20030;-20
2022/04/15 15:59:52;;;;;;;0.60;0.60;;;;;;;17.87;55.71;97159.47;10329511;28;20803;-21
2022/04/15 16:04:54;;;;;;;0.73;0.70;;;;;;;17.73;55.58;97166.09;10348270;28;20065;-20
2022/04/15 16:09:54;;;;;;;0.57;0.57;;;;;;;17.62;55.42;97157.53;10369299;28;20056;-20
2022/04/15 16:14:54;;;;;;;0.83;0.70;;;;;;;17.58;55.38;97161.72;10333317;28;20042;-21
2022/04/15 16:19:58;;;;;;;0.50;0.50;;;;;;;17.57;55.59;97164.25;10328328;28;20085;-20
2022/04/15 16:25:00;;;;;;;0.60;0.60;;;;;;;17.55;55.60;97158.28;10328276;28;20034;-21
2022/04/15 16:30:01;;;;;;;0.47;0.40;;;;;;;17.53;55.48;97162.50;10328376;28;20054;-21
2022/04/15 16:35:02;;;;;;;0.50;0.50;;;;;;;17.50;55.77;97162.47;10328261;28;20125;-20
2022/04/15 16:40:03;;;;;;;1.00;0.90;;;;;;;17.52;55.61;97165.88;10328404;28;20489;-21
2022/04/15 16:45:04;;;;;;;0.57;0.50;;;;;;;17.50;55.49;97162.47;10327730;28;20061;-20
2022/04/15 16:50:05;;;;;;;0.80;0.73;;;;;;;17.51;55.60;97171.78;10327886;28;20251;-21
2022/04/15 17:00:25;;;;;;;0.75;0.75;;;;;;;17.92;56.26;97173.88;10328250;28;20093;-20
2022/04/15 17:05:25;;;;;;;0.40;0.40;;;;;;;17.71;55.80;97163.53;10329268;28;20112;-20
2022/04/15 17:10:27;;;;;;;0.53;0.53;;;;;;;17.67;55.13;97160.97;10350920;28;20484;-21
2022/04/15 17:15:27;;;;;;;0.52;0.52;;;;;;;17.61;55.02;97165.97;10334868;28;20401;-20
2022/04/15 17:20:28;;;;;;;0.50;0.50;;;;;;;17.58;55.35;97171.00;10329805;28;20536;-21
2022/04/15 17:25:28;;;;;;;0.60;0.60;;;;;;;17.54;55.54;97176.84;10328901;28;20281;-21
2022/04/15 17:30:28;;;;;;;0.87;0.40;;;;;;;17.53;55.54;97175.16;10329610;28;20038;-20
2022/04/15 17:35:29;;;;;;;0.73;0.50;;;;;;;17.52;55.70;97176.00;10328175;28;20038;-21
2022/04/15 17:40:29;;;;;;;0.38;0.38;;;;;;;17.53;55.46;97182.75;10328811;28;20113;-20
2022/04/15 17:45:30;;;;;;;0.70;0.35;;;;;;;17.50;55.60;97180.19;10328291;28;20409;-20
2022/04/15 17:50:30;;;;;;;0.50;0.50;;;;;;;17.51;55.52;97184.44;10329091;28;20567;-21
2022/04/15 17:55:31;;;;;;;0.50;0.50;;;;;;;17.53;55.91;97191.22;10329061;28;20301;-21
2022/04/15 18:00:31;;;;;;;0.93;0.60;;;;;;;17.84;56.45;97194.91;10328429;28;20107;-21
2022/04/15 18:05:32;;;;;;;0.60;0.60;;;;;;;17.95;57.02;97199.25;10328687;28;20489;-20
2022/04/15 18:10:32;;;;;;;0.52;0.52;;;;;;;17.81;55.78;97205.00;10351611;28;20034;-21
2022/04/15 18:15:34;;;;;;;0.50;0.50;;;;;;;17.70;55.31;97219.22;10341356;28;20485;-21
2022/04/15 18:20:38;;;;;;;0.90;0.70;;;;;;;17.62;55.47;97221.69;10335564;28;20376;-21
2022/04/15 18:25:39;;;;;;;0.45;0.45;;;;;;;17.59;55.58;97228.41;10334771;28;20034;-20
2022/04/15 18:30:40;;;;;;;0.40;0.40;;;;;;;17.57;55.50;97237.66;10335190;28;20130;-20
2022/04/15 18:35:40;;;;;;;0.60;0.50;;;;;;;17.54;55.39;97240.16;10360359;28;20117;-21
2022/04/15 18:40:41;;;;;;;0.60;0.60;;;;;;;17.53;55.51;97240.97;10375622;28;20299;-20
2022/04/15 18:45:43;;;;;;;0.40;0.40;;;;;;;17.47;55.38;97243.44;10348431;28;20035;-21
2022/04/15 18:56:03;;;;;;;0.40;0.40;;;;;;;17.53;55.26;97256.16;10370783;28;20045;-21
2022/04/15 19:01:04;;;;;;;0.50;0.50;;;;;;;17.52;55.38;97262.94;10334962;28;20418;-20
2022/04/15 19:06:05;;;;;;;0.47;0.47;;;;;;;17.84;56.61;97270.91;10363505;28;20038;-20
2022/04/15 19:11:05;;;;;;;0.60;0.47;;;;;;;17.96;57.09;97273.53;10374001;28;20045;-23
2022/04/15 19:16:06;;;;;;;0.50;0.47;;;;;;;17.80;55.34;97274.22;10336233;28;20347;-23
2022/04/15 19:21:07;;;;;;;0.63;0.60;;;;;;;17.70;55.47;97278.34;10362956;28;20034;-23
2022/04/15 19:26:08;;;;;;;0.60;0.60;;;;;;;17.56;55.43;97279.00;10363576;28;20049;-23
2022/04/15 19:31:09;;;;;;;0.57;0.50;;;;;;;17.58;55.55;97295.06;10330810;28;20046;-22
2022/04/15 19:36:10;;;;;;;0.43;0.43;;;;;;;17.57;55.54;97290.84;10359784;28;20070;-25
2022/04/15 19:41:10;;;;;;;0.40;0.40;;;;;;;17.55;55.35;97292.47;10360916;28;20464;-23
2022/04/15 19:46:11;;;;;;;0.45;0.30;;;;;;;17.54;55.46;97298.38;10329776;28;20038;-23
2022/04/15 19:51:11;;;;;;;0.55;0.55;;;;;;;17.53;55.45;97300.06;10329511;28;20037;-22
2022/04/15 20:01:30;;;;;;;0.40;0.40;;;;;;;17.54;55.36;97316.09;10370141;28;20037;-23
2022/04/15 20:06:31;;;;;;;0.50;0.50;;;;;;;17.54;55.31;97324.56;10335507;28;20433;-23
2022/04/15 20:11:31;;;;;;;0.63;0.57;;;;;;;17.80;57.46;97322.34;10348547;28;20045;-23
2022/04/15 20:16:32;;;;;;;0.70;0.50;;;;;;;17.93;57.56;97319.97;10329034;28;20050;-23
2022/04/15 20:21:33;;;;;;;0.45;0.45;;;;;;;17.82;55.76;97323.22;10328715;28;20030;-23
2022/04/15 20:26:33;;;;;;;0.73;0.63;;;;;;;17.72;55.54;97318.84;10328510;28;20560;-22
2022/04/15 20:31:34;;;;;;;0.47;0.40;;;;;;;17.65;55.40;97319.63;10328978;28;20038;-23
2022/04/15 20:36:34;;;;;;;0.37;0.37;;;;;;;17.60;55.36;97319.59;10326845;28;20046;-23
2022/04/15 20:41:35;;;;;;;1.20;0.50;;;;;;;17.59;55.50;97329.69;10328039;28;20041;-23
2022/04/15 20:46:36;;;;;;;0.50;0.50;;;;;;;17.58;55.17;97333.03;10335153;28;20033;-23
2022/04/15 20:51:37;;;;;;;0.50;0.50;;;;;;;17.53;55.33;97320.31;10331750;28;20031;-23
2022/04/15 20:56:37;;;;;;;0.57;0.57;;;;;;;17.56;55.34;97333.00;10326592;28;20404;-23
2022/04/15 21:01:37;;;;;;;0.60;0.60;;;;;;;17.55;55.35;97336.38;10326672;28;20049;-23
2022/04/15 21:06:38;;;;;;;1.42;0.57;;;;;;;17.56;55.37;97332.19;10360103;28;20046;-23
2022/04/15 21:11:40;;;;;;;0.57;0.57;;;;;;;17.56;55.22;97329.66;10366237;28;20045;-23
2022/04/15 21:16:41;;;;;;;0.60;0.60;;;;;;;17.79;57.13;97333.31;10368246;28;20052;-24
2022/04/15 21:21:41;;;;;;;0.80;0.70;;;;;;;17.95;58.72;97330.97;10333179;28;20035;-23
2022/04/15 21:26:42;;;;;;;0.50;0.50;;;;;;;17.84;55.98;97336.75;10326107;28;20086;-23
2022/04/15 21:31:42;;;;;;;0.77;0.60;;;;;;;17.72;55.52;97326.44;10326833;28;20363;-24
2022/04/15 21:36:43;;;;;;;0.47;0.47;;;;;;;17.64;55.46;97323.84;10360498;28;20057;-23
2022/04/15 21:41:44;;;;;;;0.55;0.55;;;;;;;17.62;55.49;97319.56;10367698;28;20532;-23
2022/04/15 21:46:45;;;;;;;0.60;0.60;;;;;;;17.60;55.31;97332.25;10330024;28;20087;-23
2022/04/15 21:57:05;;;;;;;0.63;0.63;;;;;;;17.59;55.56;97327.16;10368660;28;20041;-23
2022/04/15 22:02:09;;;;;;;0.60;0.57;;;;;;;17.59;55.51;97329.69;10333312;28;20508;-23
2022/04/15 22:07:11;;;;;;;0.70;0.65;;;;;;;17.57;55.35;97332.19;10333489;28;20035;-23
2022/04/15 22:12:16;;;;;;;0.70;0.70;;;;;;;17.58;55.25;97335.56;10361667;28;20481;-23
2022/04/15 22:17:21;;;;;;;0.77;0.77;;;;;;;17.58;55.38;97346.53;10333973;28;20306;-23
2022/04/15 22:22:23;;;;;;;0.60;0.60;;;;;;;17.77;57.44;97340.91;10373006;28;20124;-23
2022/04/15 22:27:24;;;;;;;1.02;0.80;;;;;;;17.93;58.30;97347.81;10364390;28;20042;-23
2022/04/15 22:32:24;;;;;;;0.43;0.43;;;;;;;17.83;56.17;97352.78;10333012;28;20069;-23
2022/04/15 22:37:25;;;;;;;0.45;0.45;;;;;;;17.70;55.46;97350.91;10371641;28;20128;-23
2022/04/15 22:42:27;;;;;;;0.77;0.75;;;;;;;17.65;55.51;97358.44;10368708;28;20022;-23
2022/04/15 22:47:36;;;;;;;0.50;0.50;;;;;;;17.63;55.65;97359.25;10332013;28;20034;-23
2022/04/15 22:52:37;;;;;;;0.52;0.52;;;;;;;17.55;55.61;97348.16;10332019;28;20035;-23
2022/04/15 22:57:38;;;;;;;0.73;0.60;;;;;;;17.62;55.15;97365.16;10329485;28;20113;-23
2022/04/15 23:02:38;;;;;;;0.80;0.75;;;;;;;17.61;55.46;97364.31;10331309;28;20030;-23
2022/04/15 23:07:39;;;;;;;2.03;0.88;;;;;;;17.61;55.46;97363.47;10331892;28;20038;-23
2022/04/15 23:12:42;;;;;;;0.60;0.60;;;;;;;17.53;55.61;97349.84;10359498;28;20031;-23
2022/04/15 23:17:43;;;;;;;0.50;0.50;;;;;;;17.56;55.42;97360.03;10329862;28;20536;-23
2022/04/15 23:22:43;;;;;;;1.75;0.60;;;;;;;17.61;55.53;97371.06;10330983;28;20117;-23
2022/04/15 23:27:43;;;;;;;0.60;0.60;;;;;;;17.67;58.04;97366.91;10350178;28;20481;-23
2022/04/15 23:32:44;;;;;;;0.60;0.60;;;;;;;17.91;58.52;97371.47;10369129;28;20573;-23
2022/04/15 23:37:47;;;;;;;0.50;0.50;;;;;;;17.88;56.32;97367.22;10330886;28;20277;-23
2022/04/15 23:42:48;;;;;;;0.45;0.45;;;;;;;17.73;55.71;97372.06;10330649;28;20286;-23
2022/04/15 23:53:08;;;;;;;0.80;0.60;;;;;;;17.65;55.44;97375.34;10330469;28;20030;-22
2022/04/15 23:58:09;;;;;;;0.38;0.38;;;;;;;17.64;55.41;97381.22;10329772;28;20050;-23
